createdAt,value
2022-12-18T05:15:44.875Z,8.73
2022-12-18T05:18:11.652Z,22.55
2022-12-18T05:20:38.160Z,11.90
2022-12-18T05:23:04.764Z,8.32
2022-12-18T05:25:31.469Z,11.40
2022-12-18T05:27:57.983Z,13.13
2022-12-18T05:30:24.608Z,9.43
2022-12-18T05:32:51.191Z,14.43
2022-12-18T05:35:17.764Z,14.30
2022-12-18T05:37:44.388Z,8.30
2022-12-18T05:40:11.409Z,12.95
2022-12-18T05:42:38.675Z,13.07
2022-12-18T05:45:06.221Z,12.65
2022-12-18T05:47:32.726Z,15.35
2022-12-18T05:49:59.539Z,15.45
2022-12-18T05:52:26.272Z,11.23
2022-12-18T05:54:52.982Z,13.85
2022-12-18T05:57:19.710Z,13.90
2022-12-18T05:59:46.245Z,11.20
2022-12-18T06:02:12.923Z,16.10
2022-12-18T06:04:39.643Z,13.57
2022-12-18T06:07:08.745Z,11.60
2022-12-18T06:09:35.285Z,16.17
2022-12-18T06:12:03.040Z,9.73
2022-12-18T06:14:29.875Z,12.55
2022-12-18T06:16:56.488Z,15.70
2022-12-18T06:19:23.157Z,14.80
2022-12-18T06:21:50.298Z,21.40
2022-12-18T06:24:17.000Z,13.35
2022-12-18T06:26:43.961Z,10.75
2022-12-18T06:29:10.527Z,14.15
2022-12-18T06:31:37.241Z,13.90
2022-12-18T06:34:08.283Z,11.82
2022-12-18T06:36:35.025Z,10.43
2022-12-18T06:39:02.006Z,14.80
2022-12-18T06:41:28.774Z,11.00
2022-12-18T06:43:59.552Z,14.23
2022-12-18T06:46:28.681Z,11.90
2022-12-18T06:48:55.253Z,20.15
2022-12-18T06:51:23.401Z,19.80
2022-12-18T06:53:50.647Z,13.95
2022-12-18T06:56:17.378Z,13.00
2022-12-18T06:58:44.080Z,16.52
2022-12-18T07:01:12.681Z,12.02
2022-12-18T07:03:43.802Z,18.13
2022-12-18T07:06:19.599Z,20.48
2022-12-18T07:08:47.706Z,20.70
2022-12-18T07:11:15.023Z,10.05
2022-12-18T07:13:42.105Z,12.98
2022-12-18T07:16:23.921Z,17.95
2022-12-18T07:18:51.739Z,21.67
2022-12-18T07:21:20.648Z,13.35
2022-12-18T07:23:49.352Z,17.55
2022-12-18T07:26:18.629Z,9.48
2022-12-18T07:28:46.380Z,17.85
2022-12-18T07:31:17.236Z,19.77
2022-12-18T07:33:46.070Z,11.82
2022-12-18T07:36:13.374Z,14.27
2022-12-18T07:38:41.450Z,8.93
2022-12-18T07:41:10.903Z,14.15
2022-12-18T07:43:38.852Z,12.02
2022-12-18T07:46:07.005Z,8.82
2022-12-18T07:48:33.941Z,18.52
2022-12-18T07:51:01.595Z,17.88
2022-12-18T07:53:28.735Z,16.45
2022-12-18T07:56:25.969Z,12.95
2022-12-18T07:58:48.530Z,19.95
2022-12-18T08:01:16.541Z,22.98
2022-12-18T08:04:09.442Z,12.80
2022-12-18T08:06:37.087Z,15.75
2022-12-18T08:09:03.719Z,15.98
2022-12-18T08:11:30.957Z,14.02
2022-12-18T08:13:58.735Z,9.10
2022-12-18T08:16:26.136Z,11.55
2022-12-18T08:18:54.786Z,17.77
2022-12-18T08:21:27.962Z,16.67
2022-12-18T08:23:57.415Z,15.93
2022-12-18T08:26:26.400Z,15.30
2022-12-18T08:28:55.273Z,12.73
2022-12-18T08:31:22.285Z,18.23
2022-12-18T08:33:53.154Z,17.20
2022-12-18T08:36:21.629Z,12.43
2022-12-18T08:38:48.517Z,16.42
2022-12-18T08:41:16.710Z,14.05
2022-12-18T08:44:01.973Z,16.50
2022-12-18T08:46:35.637Z,14.82
2022-12-18T08:49:02.227Z,22.35
2022-12-18T08:51:29.730Z,14.43
2022-12-18T08:53:56.228Z,17.42
2022-12-18T08:56:23.057Z,16.02
2022-12-18T08:58:52.954Z,17.55
2022-12-18T09:01:20.124Z,24.58
2022-12-18T09:03:46.827Z,23.95
2022-12-18T09:06:21.765Z,14.80
2022-12-18T09:08:48.557Z,18.65
2022-12-18T09:11:29.432Z,15.00
2022-12-18T09:13:58.135Z,16.13
2022-12-18T09:16:31.738Z,14.82
2022-12-18T09:19:00.820Z,23.75
2022-12-18T09:21:52.006Z,22.83
2022-12-18T09:27:05.676Z,18.90
2022-12-18T09:29:38.744Z,14.32
2022-12-18T09:35:10.337Z,27.70
2022-12-18T09:37:37.117Z,28.45
2022-12-18T09:40:04.833Z,27.33
2022-12-18T09:42:34.678Z,20.33
2022-12-18T09:45:02.133Z,20.80
2022-12-18T09:47:36.045Z,25.85
2022-12-18T09:50:06.875Z,23.58
2022-12-18T09:52:50.379Z,22.02
2022-12-18T09:55:37.475Z,27.93
2022-12-18T09:58:21.726Z,24.08
2022-12-18T10:00:48.400Z,20.73
2022-12-18T10:03:16.749Z,28.48
2022-12-18T10:06:03.597Z,30.70
2022-12-18T10:08:50.072Z,25.05
2022-12-18T10:11:50.032Z,27.73
2022-12-18T10:14:35.215Z,28.55
2022-12-18T10:17:43.306Z,28.00
2022-12-18T10:20:29.441Z,27.55
2022-12-18T10:23:09.390Z,21.38
2022-12-18T10:25:46.349Z,32.53
2022-12-18T10:28:19.062Z,26.70
2022-12-18T10:30:45.670Z,33.35
2022-12-18T10:33:17.998Z,28.23
2022-12-18T10:35:45.879Z,30.30
2022-12-18T10:38:49.141Z,33.55
2022-12-18T10:41:27.383Z,38.55
2022-12-18T10:44:23.312Z,40.80
2022-12-18T10:47:10.143Z,31.60
2022-12-18T10:49:49.401Z,34.30
2022-12-18T10:52:19.993Z,32.60
2022-12-18T10:55:04.832Z,43.42
2022-12-18T10:57:38.318Z,36.10
2022-12-18T11:00:35.380Z,36.60
2022-12-18T11:03:44.736Z,37.97
2022-12-18T11:06:14.838Z,34.13
2022-12-18T11:08:44.613Z,37.35
2022-12-18T11:11:38.753Z,44.50
2022-12-18T11:14:21.102Z,37.13
2022-12-18T11:17:23.660Z,38.42
2022-12-18T11:19:42.062Z,35.95
2022-12-18T11:22:26.097Z,40.47
2022-12-18T11:25:30.982Z,35.85
2022-12-18T11:27:55.602Z,38.95
2022-12-18T11:30:25.695Z,38.88
2022-12-18T11:32:56.955Z,38.40
2022-12-18T11:35:26.559Z,40.92
2022-12-18T11:38:03.922Z,41.72
2022-12-18T11:40:41.147Z,35.90
2022-12-18T11:43:16.095Z,37.28
2022-12-18T11:46:06.334Z,42.05
2022-12-18T11:48:47.316Z,45.33
2022-12-18T11:51:29.023Z,37.50
2022-12-18T11:53:56.532Z,37.63
2022-12-18T11:56:37.349Z,42.78
2022-12-18T11:59:36.830Z,46.45
2022-12-18T12:02:22.539Z,46.00
2022-12-18T12:05:00.294Z,44.40
2022-12-18T12:07:57.534Z,35.75
2022-12-18T12:10:27.152Z,39.08
2022-12-18T12:13:20.700Z,36.55
2022-12-18T12:16:01.337Z,41.25
2022-12-18T12:18:49.925Z,50.55
2022-12-18T12:21:57.774Z,37.97
2022-12-18T12:24:36.866Z,37.72
2022-12-18T12:27:15.865Z,31.85
2022-12-18T12:30:28.177Z,39.38
2022-12-18T12:33:01.598Z,38.10
2022-12-18T12:36:04.309Z,38.67
2022-12-18T12:38:56.455Z,42.53
2022-12-18T12:41:45.714Z,41.83
2022-12-18T12:44:31.738Z,40.42
2022-12-18T12:47:08.039Z,34.17
2022-12-18T12:49:40.315Z,46.75
2022-12-18T12:52:13.699Z,43.90
2022-12-18T12:54:40.794Z,44.22
2022-12-18T12:57:17.482Z,33.70
2022-12-18T12:59:59.938Z,39.70
2022-12-18T13:02:33.582Z,36.60
2022-12-18T13:05:26.094Z,39.90
2022-12-18T13:08:10.928Z,33.42
2022-12-18T13:10:42.121Z,41.28
2022-12-18T13:13:17.160Z,41.15
2022-12-18T13:16:08.291Z,48.30
2022-12-18T13:18:36.207Z,42.78
2022-12-18T13:21:19.110Z,38.63
2022-12-18T13:23:46.194Z,38.30
2022-12-18T13:26:16.967Z,34.47
2022-12-18T13:28:49.449Z,36.67
2022-12-18T13:31:40.774Z,41.17
2022-12-18T13:34:26.690Z,43.40
2022-12-18T13:37:17.672Z,37.72
2022-12-18T13:39:44.356Z,40.45
2022-12-18T13:42:30.926Z,44.03
2022-12-18T13:44:57.604Z,39.00
2022-12-18T13:47:33.336Z,43.65
2022-12-18T13:50:00.928Z,36.25
2022-12-18T13:52:38.308Z,38.40
2022-12-18T13:55:08.581Z,40.47
2022-12-18T13:57:41.741Z,38.28
2022-12-18T14:00:25.755Z,41.88
2022-12-18T14:02:53.442Z,48.33
2022-12-18T14:05:33.234Z,37.60
2022-12-18T14:08:11.178Z,40.30
2022-12-18T14:10:48.448Z,36.45
2022-12-18T14:13:28.899Z,37.88
2022-12-18T14:15:57.319Z,38.60
2022-12-18T14:18:33.780Z,40.75
2022-12-18T14:21:02.907Z,42.47
2022-12-18T14:23:37.076Z,39.97
2022-12-18T14:26:24.397Z,40.42
2022-12-18T14:28:51.173Z,37.22
2022-12-18T14:31:26.413Z,41.70
2022-12-18T14:33:54.077Z,41.03
2022-12-18T14:36:24.349Z,40.67
2022-12-18T14:38:59.676Z,38.00
2022-12-18T14:41:27.398Z,44.92
2022-12-18T14:43:55.460Z,43.90
2022-12-18T14:46:36.587Z,36.00
2022-12-18T14:49:31.340Z,36.40
2022-12-18T14:52:32.310Z,40.22
2022-12-18T14:54:59.197Z,32.42
2022-12-18T14:57:31.045Z,36.28
2022-12-18T15:00:15.703Z,39.42
2022-12-18T15:02:43.601Z,38.53
2022-12-18T15:05:13.490Z,42.85
2022-12-18T15:07:55.245Z,42.05
2022-12-18T15:10:27.183Z,35.47
2022-12-18T15:12:56.631Z,42.58
2022-12-18T15:15:38.622Z,45.78
2022-12-18T15:18:14.084Z,38.92
2022-12-18T15:20:53.315Z,37.05
2022-12-18T15:23:26.886Z,37.85
2022-12-18T15:25:59.664Z,38.05
2022-12-18T15:28:48.458Z,45.05
2022-12-18T15:31:17.031Z,35.80
2022-12-18T15:34:01.139Z,37.83
2022-12-18T15:36:27.707Z,31.50
2022-12-18T15:39:04.834Z,35.53
2022-12-18T15:41:36.219Z,36.53
2022-12-18T15:44:04.622Z,38.38
2022-12-18T15:46:31.942Z,42.58
2022-12-18T15:49:02.387Z,38.42
2022-12-18T15:51:32.627Z,40.33
2022-12-18T15:54:01.730Z,36.10
2022-12-18T15:56:47.031Z,39.22
2022-12-18T15:59:16.898Z,45.00
2022-12-18T16:01:47.029Z,42.05
2022-12-18T16:04:15.364Z,39.97
2022-12-18T16:07:12.800Z,46.35
2022-12-18T16:09:29.488Z,38.80
2022-12-18T16:11:56.094Z,49.38
2022-12-18T16:14:28.099Z,36.65
2022-12-18T16:17:01.186Z,44.05
2022-12-18T16:19:28.466Z,40.55
2022-12-18T16:21:56.942Z,46.10
2022-12-18T16:24:26.491Z,44.42
2022-12-18T16:26:54.577Z,35.83
2022-12-18T16:29:28.531Z,47.08
2022-12-18T16:31:56.849Z,33.63
2022-12-18T16:34:29.274Z,38.28
2022-12-18T16:37:05.769Z,42.97
2022-12-18T16:39:37.503Z,39.60
2022-12-18T16:42:17.114Z,45.65
2022-12-18T16:44:48.685Z,43.08
2022-12-18T16:47:17.040Z,45.28
2022-12-18T16:49:46.546Z,42.15
2022-12-18T16:52:13.400Z,42.72
2022-12-18T16:54:41.273Z,43.25
2022-12-18T16:57:10.972Z,41.13
2022-12-18T16:59:38.319Z,43.22
2022-12-18T17:02:09.766Z,39.33
2022-12-18T17:04:38.030Z,40.63
2022-12-18T17:07:05.657Z,35.42
2022-12-18T17:09:32.650Z,43.97
2022-12-18T17:12:03.640Z,37.22
2022-12-18T17:19:52.583Z,40.92
2022-12-18T17:22:19.943Z,41.13
2022-12-18T17:24:47.674Z,46.25
2022-12-18T17:27:15.073Z,44.63
2022-12-18T17:29:47.432Z,39.30
2022-12-18T17:32:14.938Z,44.67
2022-12-18T17:34:42.688Z,36.45
2022-12-18T17:37:13.229Z,40.47
2022-12-18T17:39:42.751Z,42.15
2022-12-18T17:42:15.186Z,42.33
2022-12-18T17:44:42.895Z,49.95
2022-12-18T17:47:12.140Z,40.90
2022-12-18T17:49:38.811Z,36.97
2022-12-18T17:52:08.112Z,39.75
2022-12-18T17:54:38.817Z,42.63
2022-12-18T17:57:09.683Z,39.08
2022-12-18T17:59:36.414Z,40.22
2022-12-18T18:02:24.233Z,39.90
2022-12-18T18:05:03.399Z,46.00
2022-12-18T18:14:52.293Z,40.83
2022-12-18T18:17:19.323Z,45.22
2022-12-18T18:19:45.946Z,37.63
2022-12-18T18:22:17.248Z,49.53
2022-12-18T18:24:46.827Z,47.35
2022-12-18T18:27:13.615Z,43.50
2022-12-18T18:29:40.495Z,35.17
2022-12-18T18:32:24.650Z,43.72
2022-12-18T18:34:52.245Z,42.92
2022-12-18T18:37:19.839Z,47.88
2022-12-18T18:39:46.381Z,50.05
2022-12-18T18:42:13.072Z,37.55
2022-12-18T18:44:42.293Z,41.92
2022-12-18T18:47:13.034Z,42.13
2022-12-18T18:49:45.970Z,41.42
2022-12-18T18:55:20.505Z,48.70
2022-12-18T18:57:54.768Z,41.08
2022-12-18T19:33:51.289Z,31.70
2022-12-18T19:36:23.243Z,41.60
2022-12-18T19:38:51.901Z,45.72
2022-12-18T19:41:19.905Z,49.83
2022-12-18T19:43:48.204Z,39.53
2022-12-18T19:46:19.452Z,48.88
2022-12-18T19:48:51.083Z,39.78
2022-12-18T19:51:20.906Z,42.70
2022-12-18T19:53:48.235Z,39.53
2022-12-18T19:56:17.256Z,42.42
2022-12-18T19:58:45.141Z,41.60
2022-12-18T20:01:17.101Z,53.25
2022-12-18T20:03:51.596Z,55.03
2022-12-18T20:06:29.389Z,51.10
2022-12-18T20:09:00.320Z,50.38
2022-12-18T20:11:28.863Z,48.88
2022-12-18T20:13:56.253Z,49.38
2022-12-18T20:16:23.266Z,38.47
2022-12-18T20:18:50.302Z,45.47
2022-12-18T20:21:18.004Z,51.42
2022-12-18T20:23:47.337Z,41.80
2022-12-18T20:26:17.036Z,41.42
2022-12-18T20:28:47.040Z,44.75
2022-12-18T20:31:14.345Z,39.80
2022-12-18T20:33:52.059Z,44.00
2022-12-18T20:39:06.581Z,43.60
2022-12-18T20:41:38.341Z,49.45
2022-12-18T20:44:21.674Z,39.10
2022-12-18T20:49:23.262Z,41.33
2022-12-18T20:51:53.387Z,37.67
2022-12-18T20:54:22.278Z,51.40
2022-12-18T20:56:50.803Z,46.28
2022-12-18T20:59:18.437Z,44.03
2022-12-18T21:01:49.483Z,39.90
2022-12-18T21:04:20.752Z,40.05
2022-12-18T21:06:55.822Z,38.03
2022-12-18T21:09:31.591Z,36.60
2022-12-18T21:12:40.568Z,39.92
2022-12-18T21:15:51.025Z,37.75
2022-12-18T21:18:18.222Z,43.55
2022-12-18T21:21:27.182Z,43.20
2022-12-18T21:24:00.374Z,46.08
2022-12-18T21:26:51.536Z,38.28
2022-12-18T21:29:24.798Z,36.75
2022-12-18T21:31:57.578Z,37.10
2022-12-18T21:34:28.012Z,45.28
2022-12-18T21:36:57.359Z,38.83
2022-12-18T21:39:25.753Z,45.65
2022-12-18T21:42:11.688Z,41.17
2022-12-18T21:44:41.536Z,39.58
2022-12-18T21:47:22.933Z,44.42
2022-12-18T21:49:52.695Z,44.17
2022-12-18T21:52:20.115Z,40.63
2022-12-18T21:54:50.286Z,37.60
2022-12-18T21:57:18.582Z,36.75
2022-12-18T21:59:45.135Z,36.10
2022-12-18T22:02:15.753Z,33.10
2022-12-18T22:04:43.874Z,49.15
2022-12-18T22:07:10.964Z,48.95
2022-12-18T22:09:38.149Z,51.60
2022-12-18T22:12:05.296Z,53.28
2022-12-18T22:14:31.931Z,44.53
2022-12-18T22:16:58.744Z,72.20
2022-12-18T22:19:29.017Z,71.07
2022-12-18T22:21:58.966Z,51.88
2022-12-18T22:24:29.242Z,50.22
2022-12-18T22:27:01.721Z,52.60
2022-12-18T22:29:50.491Z,44.08
2022-12-18T22:32:21.442Z,43.85
2022-12-18T22:35:03.082Z,44.33
2022-12-18T22:37:33.032Z,43.55
2022-12-18T22:40:03.150Z,37.67
2022-12-18T22:42:34.193Z,40.08
2022-12-18T22:45:01.227Z,44.17
2022-12-18T22:47:30.351Z,31.33
2022-12-18T22:49:58.315Z,44.17
2022-12-18T22:52:25.793Z,35.28
2022-12-18T22:54:54.187Z,42.85
2022-12-18T22:57:27.591Z,30.50
2022-12-18T22:59:54.535Z,46.75
